Time;durP1;ratioP1;P1;durP2;ratioP2;P2;SDS_P1;SDS_P2;PMS_P1;PMS_P2;Temp;Humidity;BMP_temperature;BMP_pressure;BME280_temperature;BME280_humidity;BME280_pressure;Samples;Min_cycle;Max_cycle;Signal;HPM_P1;HPM_P2
2024/02/25 11:21:53;;;;;;;13.63;13.13;;;;;;;;;;5123928;27;20831;-80
2024/02/25 11:24:37;;;;;;;11.60;11.20;;;;;;;;;;5127701;27;20609;-81
2024/02/25 11:27:09;;;;;;;11.33;10.93;;;;;;;;;;5129115;27;20635;-81
2024/02/25 11:29:37;;;;;;;11.03;10.63;;;;;;;;;;5119426;27;20624;-82
2024/02/25 11:32:06;;;;;;;10.67;10.37;;;;;;;;;;5137930;27;21169;-81
2024/02/25 11:34:35;;;;;;;11.30;10.90;;;;;;;;;;5128265;28;20615;-81
2024/02/25 11:37:06;;;;;;;11.03;10.73;;;;;;;;;;5129988;28;21032;-81
2024/02/25 11:39:36;;;;;;;11.75;11.35;;;;;;;;;;5127945;28;20616;-81
2024/02/25 11:42:05;;;;;;;11.10;10.80;;;;;;;;;;5129752;27;20201;-81
2024/02/25 11:44:34;;;;;;;10.45;10.15;;;;;;;;;;5130462;27;20245;-81
2024/02/25 11:47:03;;;;;;;11.25;10.85;;;;;;;;;;5126473;27;20229;-80
2024/02/25 11:49:32;;;;;;;11.38;10.88;;;;;;;;;;5122487;28;20213;-80
2024/02/25 11:52:03;;;;;;;11.80;11.40;;;;;;;;;;5109915;28;20243;-80
2024/02/25 11:54:33;;;;;;;11.60;11.10;;;;;;;;;;5112073;28;20203;-79
2024/02/25 11:57:03;;;;;;;11.20;10.80;;;;;;;;;;5128715;28;20676;-78
2024/02/25 11:59:32;;;;;;;10.87;10.47;;;;;;;;;;5131698;27;20651;-79
2024/02/25 12:02:00;;;;;;;11.90;11.50;;;;;;;;;;5164176;27;21286;-79
2024/02/25 12:04:32;;;;;;;12.00;11.60;;;;;;;;;;5134129;27;20612;-79
2024/02/25 12:07:04;;;;;;;11.00;10.63;;;;;;;;;;5152432;27;21232;-79
2024/02/25 12:09:34;;;;;;;11.33;10.93;;;;;;;;;;5133039;27;20593;-79
2024/02/25 12:12:02;;;;;;;11.50;11.10;;;;;;;;;;5134289;27;21179;-79
2024/02/25 12:14:32;;;;;;;11.30;10.80;;;;;;;;;;5131724;27;20626;-80
2024/02/25 12:17:01;;;;;;;11.50;11.00;;;;;;;;;;5149693;27;20589;-79
2024/02/25 12:19:30;;;;;;;12.10;11.60;;;;;;;;;;5165620;27;20636;-79
2024/02/25 12:21:59;;;;;;;11.60;11.20;;;;;;;;;;5163080;27;21245;-79
2024/02/25 12:24:27;;;;;;;12.60;12.10;;;;;;;;;;5147072;27;20617;-79
2024/02/25 12:26:57;;;;;;;12.83;12.40;;;;;;;;;;5147904;27;20611;-79
2024/02/25 12:29:27;;;;;;;13.17;12.67;;;;;;;;;;5151589;27;21169;-79
2024/02/25 12:31:56;;;;;;;13.90;13.40;;;;;;;;;;5147235;27;20590;-79
2024/02/25 12:34:25;;;;;;;13.13;12.73;;;;;;;;;;5134831;27;20638;-79
2024/02/25 12:36:54;;;;;;;12.73;12.33;;;;;;;;;;5115320;27;20676;-80
2024/02/25 12:39:22;;;;;;;12.50;12.10;;;;;;;;;;5110388;27;20619;-78
2024/02/25 12:41:58;;;;;;;13.70;12.73;;;;;;;;;;5133309;27;20658;-77
2024/02/25 12:44:30;;;;;;;13.67;13.17;;;;;;;;;;5132735;27;20645;-75
2024/02/25 12:46:58;;;;;;;13.63;12.93;;;;;;;;;;5139851;27;20618;-78
2024/02/25 12:49:27;;;;;;;14.27;13.70;;;;;;;;;;5138070;27;20622;-78
2024/02/25 12:51:55;;;;;;;14.13;13.63;;;;;;;;;;5137490;27;21177;-78
2024/02/25 12:54:24;;;;;;;14.00;13.50;;;;;;;;;;5134738;27;20626;-79
2024/02/25 12:56:54;;;;;;;14.00;13.50;;;;;;;;;;5131849;27;20623;-78
2024/02/25 12:59:51;;;;;;;14.10;13.50;;;;;;;;;;5132695;27;20635;-79
2024/02/25 13:02:21;;;;;;;13.70;13.20;;;;;;;;;;5139337;27;20723;-79
2024/02/25 13:04:49;;;;;;;14.00;13.40;;;;;;;;;;5138429;27;20622;-77
2024/02/25 13:07:18;;;;;;;13.70;13.20;;;;;;;;;;5129161;27;20602;-77
2024/02/25 13:09:46;;;;;;;14.00;13.50;;;;;;;;;;5083479;28;21210;-77
2024/02/25 13:12:15;;;;;;;14.60;14.10;;;;;;;;;;5113773;28;20688;-77
2024/02/25 13:14:43;;;;;;;14.37;13.77;;;;;;;;;;5113673;28;21145;-77
2024/02/25 13:17:13;;;;;;;14.47;13.87;;;;;;;;;;5132641;27;20600;-82
2024/02/25 13:19:42;;;;;;;14.37;13.73;;;;;;;;;;5131680;27;20631;-79
2024/02/25 13:22:11;;;;;;;14.17;13.57;;;;;;;;;;5134044;27;20633;-78
2024/02/25 13:24:40;;;;;;;13.30;12.80;;;;;;;;;;5118305;27;20591;-79
2024/02/25 13:27:11;;;;;;;13.30;12.80;;;;;;;;;;5124748;27;20726;-80
2024/02/25 13:29:39;;;;;;;14.10;13.47;;;;;;;;;;5137251;27;20623;-80
2024/02/25 13:32:08;;;;;;;12.83;12.37;;;;;;;;;;5131923;27;20660;-80
2024/02/25 13:34:36;;;;;;;13.13;12.53;;;;;;;;;;5135696;27;21164;-78
2024/02/25 13:37:06;;;;;;;13.80;13.10;;;;;;;;;;5142901;27;20672;-75
2024/02/25 13:39:34;;;;;;;13.40;12.90;;;;;;;;;;5154252;27;21184;-77
2024/02/25 13:42:02;;;;;;;13.77;13.27;;;;;;;;;;5143939;27;21019;-78
2024/02/25 13:44:31;;;;;;;13.00;12.50;;;;;;;;;;5131650;27;21209;-78
2024/02/25 13:46:59;;;;;;;13.60;13.00;;;;;;;;;;5132847;27;20622;-78
2024/02/25 13:49:28;;;;;;;13.60;13.00;;;;;;;;;;5112436;27;21261;-78
2024/02/25 13:51:59;;;;;;;14.50;13.80;;;;;;;;;;5129876;27;21201;-78
2024/02/25 13:54:30;;;;;;;14.40;13.80;;;;;;;;;;5112962;27;20603;-79
2024/02/25 13:57:00;;;;;;;15.10;14.40;;;;;;;;;;5135797;27;20630;-78
2024/02/25 13:59:29;;;;;;;13.93;13.43;;;;;;;;;;5143661;27;20682;-77
2024/02/25 14:01:57;;;;;;;14.60;14.00;;;;;;;;;;5144919;27;20670;-78
2024/02/25 14:04:26;;;;;;;16.73;15.73;;;;;;;;;;5131792;27;20627;-77
2024/02/25 14:06:56;;;;;;;16.33;15.40;;;;;;;;;;5132384;27;20779;-77
2024/02/25 14:09:25;;;;;;;13.77;13.27;;;;;;;;;;5131930;27;20624;-77
2024/02/25 14:11:55;;;;;;;14.37;13.87;;;;;;;;;;5130761;27;20620;-77
2024/02/25 14:14:23;;;;;;;14.10;13.60;;;;;;;;;;5133865;27;20707;-78
2024/02/25 14:16:52;;;;;;;14.30;13.70;;;;;;;;;;5131637;27;20653;-78
2024/02/25 14:19:21;;;;;;;15.30;14.70;;;;;;;;;;5133913;27;20640;-78
2024/02/25 14:21:49;;;;;;;14.90;14.30;;;;;;;;;;5130464;27;20655;-77
2024/02/25 14:24:18;;;;;;;15.10;14.50;;;;;;;;;;5134115;27;20695;-78
2024/02/25 14:26:46;;;;;;;15.03;14.00;;;;;;;;;;5123996;27;20639;-77
2024/02/25 14:29:18;;;;;;;14.90;14.30;;;;;;;;;;5133147;27;20608;-78
2024/02/25 14:31:47;;;;;;;14.70;14.10;;;;;;;;;;5102062;28;20618;-78
2024/02/25 14:34:16;;;;;;;14.43;13.90;;;;;;;;;;5122297;27;20609;-78
2024/02/25 14:36:44;;;;;;;14.60;13.90;;;;;;;;;;5122686;27;20630;-78
2024/02/25 14:39:13;;;;;;;14.43;13.90;;;;;;;;;;5112649;27;20627;-78
2024/02/25 14:41:41;;;;;;;15.33;14.73;;;;;;;;;;5124848;27;20644;-78
2024/02/25 14:44:10;;;;;;;14.63;14.13;;;;;;;;;;5120619;27;20623;-78
2024/02/25 14:46:39;;;;;;;15.80;15.10;;;;;;;;;;5108262;28;21293;-78
2024/02/25 14:49:08;;;;;;;15.50;14.90;;;;;;;;;;5116798;27;21235;-78
2024/02/25 14:51:38;;;;;;;15.30;14.70;;;;;;;;;;5095128;27;21029;-78
2024/02/25 14:54:06;;;;;;;15.80;15.10;;;;;;;;;;5130510;27;20615;-77
2024/02/25 14:56:35;;;;;;;15.53;14.93;;;;;;;;;;5125451;27;20627;-77
2024/02/25 14:59:03;;;;;;;15.50;14.80;;;;;;;;;;5133129;27;20614;-78
2024/02/25 15:01:32;;;;;;;17.20;16.40;;;;;;;;;;5134548;27;20654;-78
2024/02/25 15:04:03;;;;;;;15.63;14.93;;;;;;;;;;5129771;27;20615;-78
2024/02/25 15:06:31;;;;;;;15.77;15.07;;;;;;;;;;5118022;27;20639;-78
2024/02/25 15:09:03;;;;;;;15.10;14.50;;;;;;;;;;5127425;27;20611;-78
2024/02/25 15:11:31;;;;;;;15.07;14.47;;;;;;;;;;5095126;28;20696;-78
2024/02/25 15:14:00;;;;;;;15.53;14.83;;;;;;;;;;5108797;27;21233;-80
2024/02/25 15:16:31;;;;;;;15.50;14.90;;;;;;;;;;5096556;28;20671;-77
2024/02/25 15:19:01;;;;;;;15.43;14.83;;;;;;;;;;5102771;28;20650;-76
2024/02/25 15:21:30;;;;;;;15.33;14.70;;;;;;;;;;5124900;28;20671;-78
2024/02/25 15:24:02;;;;;;;15.20;14.60;;;;;;;;;;5126759;27;20631;-77
2024/02/25 15:26:30;;;;;;;15.47;14.77;;;;;;;;;;5119784;28;20632;-78
2024/02/25 15:29:02;;;;;;;15.60;15.00;;;;;;;;;;5122879;28;20600;-78
2024/02/25 15:31:30;;;;;;;22.00;20.40;;;;;;;;;;5112350;28;21225;-79
2024/02/25 15:33:58;;;;;;;16.60;15.80;;;;;;;;;;5119744;28;20628;-78
2024/02/25 15:36:28;;;;;;;16.13;15.53;;;;;;;;;;5128862;27;20623;-78
2024/02/25 15:38:59;;;;;;;17.00;16.30;;;;;;;;;;5130577;28;20623;-79
2024/02/25 15:41:29;;;;;;;17.33;16.33;;;;;;;;;;5119889;28;20621;-79
2024/02/25 15:43:57;;;;;;;16.20;15.50;;;;;;;;;;5124350;27;20968;-79
2024/02/25 15:46:25;;;;;;;16.30;15.60;;;;;;;;;;5134347;27;20619;-82
2024/02/25 15:48:56;;;;;;;16.27;15.57;;;;;;;;;;5132219;28;20619;-79
2024/02/25 15:51:25;;;;;;;15.40;14.80;;;;;;;;;;5129709;28;20669;-78
2024/02/25 15:53:54;;;;;;;15.43;14.73;;;;;;;;;;5127459;28;20636;-80
2024/02/25 15:56:24;;;;;;;17.10;16.10;;;;;;;;;;5122970;28;20624;-78
2024/02/25 15:58:52;;;;;;;16.00;15.10;;;;;;;;;;5130200;28;20624;-80
2024/02/25 16:01:24;;;;;;;16.40;15.60;;;;;;;;;;5127073;28;20972;-78
2024/02/25 16:03:54;;;;;;;15.60;14.80;;;;;;;;;;5109484;28;20633;-77
2024/02/25 16:06:22;;;;;;;15.20;14.60;;;;;;;;;;5129238;27;20612;-78
2024/02/25 16:08:51;;;;;;;15.57;14.87;;;;;;;;;;5106122;28;20620;-80
2024/02/25 16:11:25;;;;;;;15.40;14.80;;;;;;;;;;5133606;27;20619;-78
2024/02/25 16:13:53;;;;;;;15.53;14.73;;;;;;;;;;5131503;27;21016;-78
2024/02/25 16:16:43;;;;;;;16.20;15.27;;;;;;;;;;5124210;27;21176;-78
2024/02/25 16:19:12;;;;;;;17.20;16.40;;;;;;;;;;5129530;27;21181;-79
2024/02/25 16:21:43;;;;;;;17.10;16.30;;;;;;;;;;5128363;27;20651;-80
2024/02/25 16:24:11;;;;;;;16.33;15.63;;;;;;;;;;5133322;27;20618;-80
2024/02/25 16:26:44;;;;;;;15.10;14.50;;;;;;;;;;5120899;27;20626;-80
2024/02/25 16:29:13;;;;;;;15.77;14.97;;;;;;;;;;5116287;27;20625;-80
2024/02/25 16:31:42;;;;;;;15.53;14.93;;;;;;;;;;5135361;27;20638;-80
2024/02/25 16:34:11;;;;;;;15.67;15.00;;;;;;;;;;5125328;27;20616;-82
2024/02/25 16:36:40;;;;;;;16.40;15.63;;;;;;;;;;5133123;27;20619;-81
2024/02/25 16:39:15;;;;;;;16.10;15.40;;;;;;;;;;5117404;27;20625;-80
2024/02/25 16:41:45;;;;;;;15.73;15.03;;;;;;;;;;5133727;27;20624;-83
2024/02/25 16:44:17;;;;;;;16.43;15.57;;;;;;;;;;5125806;27;20616;-83
2024/02/25 16:46:48;;;;;;;15.07;14.47;;;;;;;;;;5121245;27;20638;-79
2024/02/25 16:49:18;;;;;;;14.70;14.00;;;;;;;;;;5128664;27;20619;-79
2024/02/25 16:51:47;;;;;;;15.50;14.60;;;;;;;;;;5103163;27;20671;-79
2024/02/25 16:54:16;;;;;;;15.20;14.50;;;;;;;;;;5103310;27;21278;-79
2024/02/25 16:56:49;;;;;;;13.77;13.27;;;;;;;;;;5134922;27;20699;-80
2024/02/25 17:02:18;;;;;;;13.50;13.00;;;;;;;;;;5122045;27;21391;-79
2024/02/25 17:04:52;;;;;;;14.10;13.40;;;;;;;;;;5119359;27;20592;-79
2024/02/25 17:07:21;;;;;;;13.40;12.80;;;;;;;;;;5112618;27;20628;-80
2024/02/25 17:09:54;;;;;;;14.93;14.17;;;;;;;;;;5107436;27;20591;-79
2024/02/25 17:12:24;;;;;;;14.23;13.63;;;;;;;;;;5134237;27;20622;-81
2024/02/25 17:14:53;;;;;;;14.27;13.57;;;;;;;;;;5135618;27;20678;-82
2024/02/25 17:17:27;;;;;;;14.20;13.50;;;;;;;;;;5141069;27;21148;-82
2024/02/25 17:19:58;;;;;;;14.70;14.00;;;;;;;;;;5165389;27;20714;-82
2024/02/25 17:22:28;;;;;;;14.20;13.60;;;;;;;;;;5157915;27;20663;-81
2024/02/25 17:24:58;;;;;;;16.00;15.23;;;;;;;;;;5159579;27;20662;-82
2024/02/25 17:27:27;;;;;;;17.70;16.00;;;;;;;;;;5137765;27;21219;-81
2024/02/25 17:29:59;;;;;;;15.37;14.57;;;;;;;;;;5129744;27;20642;-84
2024/02/25 17:32:30;;;;;;;14.97;14.17;;;;;;;;;;5132110;27;20588;-85
2024/02/25 17:35:00;;;;;;;18.50;17.13;;;;;;;;;;5122840;27;20602;-82
2024/02/25 17:37:30;;;;;;;15.23;14.53;;;;;;;;;;5108057;27;21161;-83
2024/02/25 17:39:58;;;;;;;14.20;13.50;;;;;;;;;;5115718;27;20622;-81
2024/02/25 17:42:38;;;;;;;14.13;13.43;;;;;;;;;;5123267;27;20611;-82
2024/02/25 17:45:09;;;;;;;13.80;13.13;;;;;;;;;;5133613;27;20596;-81
2024/02/25 17:47:37;;;;;;;16.07;15.17;;;;;;;;;;5133181;27;20638;-82
2024/02/25 17:50:06;;;;;;;16.17;15.17;;;;;;;;;;5137307;27;20686;-82
2024/02/25 17:52:34;;;;;;;15.18;14.48;;;;;;;;;;5166593;27;20702;-82
2024/02/25 17:55:05;;;;;;;15.40;14.55;;;;;;;;;;5169190;27;20292;-82
2024/02/25 17:57:34;;;;;;;17.58;16.42;;;;;;;;;;5156204;27;20249;-83
2024/02/25 18:00:10;;;;;;;17.13;15.88;;;;;;;;;;5150420;27;20294;-81
2024/02/25 18:02:38;;;;;;;15.25;14.43;;;;;;;;;;5127683;27;20265;-81
2024/02/25 18:05:12;;;;;;;15.90;14.90;;;;;;;;;;5154736;27;20197;-79
2024/02/25 18:07:40;;;;;;;14.95;13.98;;;;;;;;;;5117693;27;20186;-79
2024/02/25 18:10:12;;;;;;;15.85;14.77;;;;;;;;;;5117185;27;20202;-79
2024/02/25 18:12:44;;;;;;;14.38;13.57;;;;;;;;;;5132591;27;20205;-79
2024/02/25 18:15:16;;;;;;;17.80;16.38;;;;;;;;;;5125329;27;20193;-79
2024/02/25 18:17:46;;;;;;;14.95;14.15;;;;;;;;;;5145699;27;20245;-80
2024/02/25 18:20:14;;;;;;;14.60;13.90;;;;;;;;;;5143741;27;20605;-78
2024/02/25 18:22:45;;;;;;;16.08;15.10;;;;;;;;;;5125280;27;20266;-79
2024/02/25 18:25:13;;;;;;;13.60;13.00;;;;;;;;;;5132739;27;20194;-79
2024/02/25 18:27:41;;;;;;;13.98;13.38;;;;;;;;;;5126594;27;20205;-77
2024/02/25 18:30:13;;;;;;;13.60;13.00;;;;;;;;;;5122066;27;20200;-78
2024/02/25 18:32:45;;;;;;;15.75;14.77;;;;;;;;;;5136731;27;20223;-78
2024/02/25 18:35:16;;;;;;;15.40;14.45;;;;;;;;;;5115839;27;20206;-79
2024/02/25 18:37:45;;;;;;;14.32;13.63;;;;;;;;;;5121219;27;20202;-80
2024/02/25 18:40:14;;;;;;;15.02;14.13;;;;;;;;;;5126961;27;20257;-79
2024/02/25 18:42:45;;;;;;;14.93;14.02;;;;;;;;;;5102595;27;20712;-79
2024/02/25 18:45:15;;;;;;;14.20;13.40;;;;;;;;;;5102960;27;20189;-79
2024/02/25 18:47:44;;;;;;;13.63;12.80;;;;;;;;;;5104507;28;20220;-79
2024/02/25 18:50:13;;;;;;;12.77;12.27;;;;;;;;;;5132785;27;20259;-79
2024/02/25 18:52:44;;;;;;;12.32;11.75;;;;;;;;;;5117551;27;20664;-79
2024/02/25 18:55:13;;;;;;;12.85;12.25;;;;;;;;;;5136767;27;20257;-79
2024/02/25 18:57:44;;;;;;;12.00;11.50;;;;;;;;;;5134250;27;20206;-78
2024/02/25 19:00:13;;;;;;;12.45;11.85;;;;;;;;;;5135817;27;20661;-78
2024/02/25 19:02:46;;;;;;;11.50;10.80;;;;;;;;;;5124632;27;20574;-78
2024/02/25 19:05:17;;;;;;;11.43;10.90;;;;;;;;;;5107404;27;20231;-78
2024/02/25 19:07:47;;;;;;;10.93;10.52;;;;;;;;;;5098184;28;20579;-79
2024/02/25 19:10:18;;;;;;;10.50;10.10;;;;;;;;;;5106010;28;20967;-79
2024/02/25 19:12:47;;;;;;;9.30;9.00;;;;;;;;;;5078362;28;20212;-77
2024/02/25 19:15:16;;;;;;;9.98;9.57;;;;;;;;;;5080995;28;20191;-78
2024/02/25 19:17:46;;;;;;;10.25;9.85;;;;;;;;;;5096688;28;20198;-78
2024/02/25 19:20:18;;;;;;;9.40;9.02;;;;;;;;;;5092307;28;20220;-79
2024/02/25 19:22:47;;;;;;;9.88;9.18;;;;;;;;;;5082713;28;20210;-78
2024/02/25 19:25:15;;;;;;;10.07;9.65;;;;;;;;;;5071396;28;20713;-79
2024/02/25 19:27:45;;;;;;;9.90;9.50;;;;;;;;;;5083710;28;20192;-78
2024/02/25 19:30:14;;;;;;;10.75;10.25;;;;;;;;;;5072560;28;20196;-80
2024/02/25 19:35:47;;;;;;;9.15;8.85;;;;;;;;;;5488229;23;20233;-87
2024/02/25 19:38:16;;;;;;;9.88;9.27;;;;;;;;;;5735081;22;20229;-87
2024/02/25 19:40:46;;;;;;;9.40;9.00;;;;;;;;;;5010192;28;20228;-82
2024/02/25 19:43:18;;;;;;;8.82;8.45;;;;;;;;;;5010602;28;20218;-83
2024/02/25 19:45:46;;;;;;;9.43;9.02;;;;;;;;;;5011069;28;20214;-84
2024/02/25 19:48:16;;;;;;;9.77;9.25;;;;;;;;;;5006529;28;20217;-83
2024/02/25 19:50:45;;;;;;;9.60;9.20;;;;;;;;;;5008487;28;20198;-83
2024/02/25 19:53:26;;;;;;;8.98;8.68;;;;;;;;;;5010362;28;20280;-82
2024/02/25 19:55:56;;;;;;;9.90;9.40;;;;;;;;;;5007476;28;20614;-84
2024/02/25 19:58:24;;;;;;;11.75;10.95;;;;;;;;;;5003083;28;20202;-83
2024/02/25 20:00:58;;;;;;;9.30;8.80;;;;;;;;;;5012073;28;20193;-82
2024/02/25 20:03:27;;;;;;;9.73;9.32;;;;;;;;;;5010545;28;20202;-85
2024/02/25 20:05:59;;;;;;;9.05;8.65;;;;;;;;;;5015239;28;20206;-83
2024/02/25 20:08:31;;;;;;;9.30;8.70;;;;;;;;;;4997741;28;20217;-84
2024/02/25 20:11:02;;;;;;;9.13;8.75;;;;;;;;;;5010640;28;20199;-82
2024/02/25 20:13:30;;;;;;;8.60;8.30;;;;;;;;;;5015191;28;20576;-84
2024/02/25 20:15:58;;;;;;;8.80;8.40;;;;;;;;;;5018881;28;20220;-83
2024/02/25 20:18:26;;;;;;;8.90;8.50;;;;;;;;;;5018835;28;20582;-84
2024/02/25 20:20:55;;;;;;;8.88;8.48;;;;;;;;;;5014238;28;20684;-84
2024/02/25 20:23:24;;;;;;;8.68;8.38;;;;;;;;;;4996687;28;20203;-84
2024/02/25 20:25:53;;;;;;;8.85;8.45;;;;;;;;;;5017312;28;20208;-83
2024/02/25 20:28:21;;;;;;;8.98;8.60;;;;;;;;;;5006414;28;20210;-83
2024/02/25 20:30:52;;;;;;;8.95;8.65;;;;;;;;;;4996100;28;20202;-83
2024/02/25 20:33:20;;;;;;;10.63;10.00;;;;;;;;;;5006810;28;20206;-84
2024/02/25 20:35:49;;;;;;;14.48;13.10;;;;;;;;;;5015409;28;20202;-83
2024/02/25 20:38:17;;;;;;;11.45;10.95;;;;;;;;;;5013188;28;20230;-83
2024/02/25 20:40:46;;;;;;;10.55;9.75;;;;;;;;;;5000889;28;20202;-83
2024/02/25 20:43:16;;;;;;;11.85;10.95;;;;;;;;;;5014753;28;20594;-84
2024/02/25 20:45:44;;;;;;;9.30;8.77;;;;;;;;;;5013346;28;20225;-84
2024/02/25 20:48:14;;;;;;;8.93;8.52;;;;;;;;;;5011652;28;20249;-83
2024/02/25 20:50:42;;;;;;;8.57;8.10;;;;;;;;;;4997229;28;20711;-84
2024/02/25 20:53:10;;;;;;;8.13;7.82;;;;;;;;;;5014977;28;20214;-83
2024/02/25 20:55:38;;;;;;;8.45;8.15;;;;;;;;;;5009906;28;20255;-83
2024/02/25 20:58:08;;;;;;;8.48;8.10;;;;;;;;;;5010010;28;20218;-81
2024/02/25 21:00:38;;;;;;;7.78;7.53;;;;;;;;;;5013892;28;20202;-81
2024/02/25 21:03:06;;;;;;;8.60;8.20;;;;;;;;;;5014131;28;20206;-82
2024/02/25 21:05:37;;;;;;;10.20;9.70;;;;;;;;;;5014181;28;20221;-82
2024/02/25 21:08:06;;;;;;;8.98;8.57;;;;;;;;;;5014433;28;20232;-81
2024/02/25 21:10:34;;;;;;;9.57;9.05;;;;;;;;;;5003317;28;20207;-80
2024/02/25 21:13:02;;;;;;;9.60;8.90;;;;;;;;;;5013274;28;20209;-84
2024/02/25 21:15:31;;;;;;;9.00;8.60;;;;;;;;;;5005188;28;20735;-84
2024/02/25 21:18:02;;;;;;;8.70;8.20;;;;;;;;;;5008362;28;20216;-82
2024/02/25 21:20:31;;;;;;;8.55;8.15;;;;;;;;;;5003047;28;20211;-82
2024/02/25 21:23:00;;;;;;;11.20;10.45;;;;;;;;;;5008889;28;20675;-83
2024/02/25 21:25:29;;;;;;;8.80;8.40;;;;;;;;;;5005222;28;20256;-84
2024/02/25 21:27:57;;;;;;;9.02;8.43;;;;;;;;;;5001936;28;20206;-80
2024/02/25 21:30:29;;;;;;;8.65;8.25;;;;;;;;;;5009016;28;20586;-84
2024/02/25 21:32:58;;;;;;;9.43;8.80;;;;;;;;;;4998842;28;20206;-81
2024/02/25 21:35:28;;;;;;;8.65;8.15;;;;;;;;;;5021566;28;20257;-83
2024/02/25 21:37:57;;;;;;;8.07;7.63;;;;;;;;;;5019978;28;20261;-82
2024/02/25 21:40:25;;;;;;;8.25;7.70;;;;;;;;;;5022044;28;20293;-81
2024/02/25 21:42:56;;;;;;;8.93;8.43;;;;;;;;;;5015550;28;20202;-81
2024/02/25 21:45:25;;;;;;;8.65;8.05;;;;;;;;;;5013743;28;20233;-83
2024/02/25 21:47:53;;;;;;;7.47;7.18;;;;;;;;;;5009587;28;20208;-82
2024/02/25 21:50:22;;;;;;;8.23;7.90;;;;;;;;;;5012937;28;20587;-82
2024/02/25 21:52:53;;;;;;;8.77;8.27;;;;;;;;;;4992573;28;20622;-81
2024/02/25 21:55:23;;;;;;;8.55;8.10;;;;;;;;;;5007295;28;20202;-82
2024/02/25 21:57:52;;;;;;;9.40;8.90;;;;;;;;;;5011134;28;20204;-82
2024/02/25 22:00:20;;;;;;;9.07;8.48;;;;;;;;;;5007665;28;20202;-81
2024/02/25 22:02:48;;;;;;;8.95;8.48;;;;;;;;;;5007754;28;20213;-83
2024/02/25 22:05:17;;;;;;;11.77;10.68;;;;;;;;;;5010850;28;20291;-82
2024/02/25 22:07:45;;;;;;;17.98;16.25;;;;;;;;;;5014442;28;20218;-81
2024/02/25 22:10:15;;;;;;;16.65;15.20;;;;;;;;;;4989178;28;20205;-83
2024/02/25 22:12:46;;;;;;;16.08;14.77;;;;;;;;;;5007341;28;20214;-82
2024/02/25 22:15:15;;;;;;;12.25;11.25;;;;;;;;;;4993595;28;20650;-83
2024/02/25 22:17:43;;;;;;;11.70;10.80;;;;;;;;;;5011253;28;20260;-83
2024/02/25 22:20:12;;;;;;;8.73;8.23;;;;;;;;;;5004849;28;20210;-85
2024/02/25 22:22:40;;;;;;;8.48;7.97;;;;;;;;;;5013743;28;20212;-81
2024/02/25 22:25:09;;;;;;;8.98;8.27;;;;;;;;;;4999447;28;20215;-83
2024/02/25 22:27:39;;;;;;;8.13;7.30;;;;;;;;;;5011979;28;20205;-86
2024/02/25 22:30:08;;;;;;;8.20;7.60;;;;;;;;;;5000673;28;20630;-82
2024/02/25 22:32:36;;;;;;;7.78;7.25;;;;;;;;;;5004776;28;20634;-80
2024/02/25 22:35:06;;;;;;;6.97;6.60;;;;;;;;;;5000734;28;20194;-82
2024/02/25 22:37:34;;;;;;;7.90;7.40;;;;;;;;;;5005066;28;20220;-82
2024/02/25 22:40:04;;;;;;;8.07;7.43;;;;;;;;;;5001442;28;20226;-82
2024/02/25 22:42:32;;;;;;;7.80;7.30;;;;;;;;;;5003662;28;20216;-82
2024/02/25 22:45:02;;;;;;;7.82;7.28;;;;;;;;;;5012416;28;20714;-81
2024/02/25 22:47:31;;;;;;;8.10;7.65;;;;;;;;;;5006952;28;20203;-82
2024/02/25 22:49:59;;;;;;;7.50;7.10;;;;;;;;;;4993548;28;20221;-84
2024/02/25 22:52:27;;;;;;;7.90;7.35;;;;;;;;;;5003302;28;20204;-81
2024/02/25 22:54:56;;;;;;;7.53;7.03;;;;;;;;;;5009776;28;20200;-81
2024/02/25 22:57:24;;;;;;;8.02;7.60;;;;;;;;;;5000192;28;20683;-81
2024/02/25 22:59:53;;;;;;;7.60;7.20;;;;;;;;;;5004887;28;20199;-81
2024/02/25 23:02:22;;;;;;;8.32;7.75;;;;;;;;;;4990711;28;20666;-81
2024/02/25 23:04:51;;;;;;;7.45;7.15;;;;;;;;;;5002421;28;20654;-80
2024/02/25 23:07:20;;;;;;;8.65;8.15;;;;;;;;;;4997913;28;20208;-81
2024/02/25 23:09:48;;;;;;;7.80;7.35;;;;;;;;;;5000597;28;20200;-81
2024/02/25 23:12:16;;;;;;;8.07;7.65;;;;;;;;;;4999701;28;20199;-80
2024/02/25 23:14:44;;;;;;;7.40;7.00;;;;;;;;;;5002638;28;20206;-82
2024/02/25 23:17:13;;;;;;;7.57;7.28;;;;;;;;;;4984758;28;20210;-80
2024/02/25 23:19:43;;;;;;;8.55;7.72;;;;;;;;;;5003094;28;20206;-82
2024/02/25 23:22:11;;;;;;;8.15;7.63;;;;;;;;;;5002738;28;20194;-81
2024/02/25 23:24:39;;;;;;;8.55;7.90;;;;;;;;;;4999605;28;20205;-81
2024/02/25 23:27:08;;;;;;;8.65;8.15;;;;;;;;;;5002484;28;20227;-82
2024/02/25 23:29:36;;;;;;;8.35;7.95;;;;;;;;;;4986179;28;20216;-81
2024/02/25 23:32:04;;;;;;;7.43;7.10;;;;;;;;;;5002249;28;20212;-82
2024/02/25 23:34:32;;;;;;;7.93;7.60;;;;;;;;;;4983791;28;20300;-82
2024/02/25 23:37:02;;;;;;;8.63;8.23;;;;;;;;;;4995569;28;20661;-82
2024/02/25 23:39:30;;;;;;;7.82;7.45;;;;;;;;;;4998821;28;20708;-81
2024/02/25 23:41:58;;;;;;;7.93;7.57;;;;;;;;;;5012533;28;20221;-82
2024/02/25 23:44:27;;;;;;;8.10;7.80;;;;;;;;;;5010516;28;20200;-82
2024/02/25 23:46:55;;;;;;;8.35;7.97;;;;;;;;;;5012549;28;20218;-81
2024/02/25 23:49:23;;;;;;;10.63;8.15;;;;;;;;;;5009483;28;20198;-82
2024/02/25 23:51:52;;;;;;;8.43;8.05;;;;;;;;;;5012058;28;20726;-82
2024/02/25 23:54:21;;;;;;;8.43;8.13;;;;;;;;;;5005905;28;20683;-82
2024/02/25 23:56:50;;;;;;;8.43;7.82;;;;;;;;;;4992893;28;20233;-82
2024/02/25 23:59:18;;;;;;;9.23;8.73;;;;;;;;;;4999410;28;20198;-82
